sensor_id;sensor_type;location;lat;lon;timestamp;pressure;altitude;pressure_sealevel;temperature;humidity
60228;BME280;46091;46.512;6.626;2022-12-13T07:01:35;95615.41;;;2.58;55.44
60228;BME280;46091;46.512;6.626;2022-12-13T07:03:39;95620.41;;;2.91;55.08
60228;BME280;46091;46.512;6.626;2022-12-13T07:05:41;95627.06;;;3.16;54.70
60228;BME280;46091;46.512;6.626;2022-12-13T07:07:44;95632.78;;;3.35;54.51
60228;BME280;46091;46.512;6.626;2022-12-13T07:09:47;95629.22;;;3.50;54.16
60228;BME280;46091;46.512;6.626;2022-12-13T07:11:50;95639.25;;;3.62;54.08
60228;BME280;46091;46.512;6.626;2022-12-13T07:13:53;95636.19;;;3.73;54.03
60228;BME280;46091;46.512;6.626;2022-12-13T07:15:56;95643.78;;;3.83;53.89
60228;BME280;46091;46.512;6.626;2022-12-13T07:18:03;95639.34;;;3.83;53.38
60228;BME280;46091;46.512;6.626;2022-12-13T07:20:07;95636.75;;;3.83;53.50
60228;BME280;46091;46.512;6.626;2022-12-13T07:22:09;95640.34;;;3.82;53.45
60228;BME280;46091;46.512;6.626;2022-12-13T07:24:12;95648.91;;;3.76;53.41
60228;BME280;46091;46.512;6.626;2022-12-13T07:26:15;95643.41;;;3.71;53.50
60228;BME280;46091;46.512;6.626;2022-12-13T07:28:19;95636.38;;;3.71;53.34
60228;BME280;46091;46.512;6.626;2022-12-13T07:30:22;95653.16;;;3.77;53.36
60228;BME280;46091;46.512;6.626;2022-12-13T07:32:25;95653.97;;;3.77;53.39
60228;BME280;46091;46.512;6.626;2022-12-13T07:34:29;95659.66;;;3.81;53.49
60228;BME280;46091;46.512;6.626;2022-12-13T07:36:32;95663.53;;;3.85;53.52
60228;BME280;46091;46.512;6.626;2022-12-13T07:38:35;95663.00;;;3.90;53.42
60228;BME280;46091;46.512;6.626;2022-12-13T07:40:39;95667.69;;;3.94;53.44
60228;BME280;46091;46.512;6.626;2022-12-13T07:42:48;95663.91;;;3.97;53.53
60228;BME280;46091;46.512;6.626;2022-12-13T07:44:53;95667.59;;;4.02;53.29
60228;BME280;46091;46.512;6.626;2022-12-13T07:46:56;95671.47;;;4.06;53.18
60228;BME280;46091;46.512;6.626;2022-12-13T07:49:00;95677.00;;;4.12;53.21
60228;BME280;46091;46.512;6.626;2022-12-13T07:51:06;95685.47;;;4.14;53.18
60228;BME280;46091;46.512;6.626;2022-12-13T07:53:11;95684.09;;;4.18;53.08
60228;BME280;46091;46.512;6.626;2022-12-13T07:55:14;95684.75;;;4.20;52.96
60228;BME280;46091;46.512;6.626;2022-12-13T07:57:33;95689.00;;;4.21;52.90
60228;BME280;46091;46.512;6.626;2022-12-13T07:59:36;95690.44;;;4.23;52.95
60228;BME280;46091;46.512;6.626;2022-12-13T08:01:39;95689.63;;;4.23;52.77
60228;BME280;46091;46.512;6.626;2022-12-13T08:03:42;95696.28;;;4.25;52.74
60228;BME280;46091;46.512;6.626;2022-12-13T08:05:45;95697.53;;;4.29;52.67
60228;BME280;46091;46.512;6.626;2022-12-13T08:07:49;95697.72;;;4.28;52.74
60228;BME280;46091;46.512;6.626;2022-12-13T08:09:52;95701.81;;;4.30;52.62
60228;BME280;46091;46.512;6.626;2022-12-13T08:11:55;95699.00;;;4.32;52.71
60228;BME280;46091;46.512;6.626;2022-12-13T08:14:02;95695.22;;;4.34;52.54
60228;BME280;46091;46.512;6.626;2022-12-13T08:16:06;95699.06;;;4.38;52.51
60228;BME280;46091;46.512;6.626;2022-12-13T08:18:29;95700.06;;;4.37;52.60
60228;BME280;46091;46.512;6.626;2022-12-13T08:20:33;95692.22;;;4.37;52.50
60228;BME280;46091;46.512;6.626;2022-12-13T08:22:35;95700.88;;;4.38;52.44
60228;BME280;46091;46.512;6.626;2022-12-13T08:24:40;95699.53;;;4.42;52.42
60228;BME280;46091;46.512;6.626;2022-12-13T08:26:43;95710.63;;;4.44;52.37
60228;BME280;46091;46.512;6.626;2022-12-13T08:28:46;95713.69;;;4.48;52.20
60228;BME280;46091;46.512;6.626;2022-12-13T08:30:49;95702.41;;;4.47;52.29
60228;BME280;46091;46.512;6.626;2022-12-13T08:32:52;95717.31;;;4.47;52.28
60228;BME280;46091;46.512;6.626;2022-12-13T08:34:56;95722.53;;;4.47;52.24
60228;BME280;46091;46.512;6.626;2022-12-13T08:36:59;95723.16;;;4.49;52.15
60228;BME280;46091;46.512;6.626;2022-12-13T08:39:04;95724.97;;;4.48;52.20
60228;BME280;46091;46.512;6.626;2022-12-13T08:41:09;95720.56;;;4.49;52.19
60228;BME280;46091;46.512;6.626;2022-12-13T08:43:11;95717.94;;;4.49;52.05
60228;BME280;46091;46.512;6.626;2022-12-13T08:45:14;95712.50;;;4.50;52.09
60228;BME280;46091;46.512;6.626;2022-12-13T08:47:17;95719.38;;;4.51;52.11
60228;BME280;46091;46.512;6.626;2022-12-13T08:49:26;95705.94;;;4.54;52.03
60228;BME280;46091;46.512;6.626;2022-12-13T08:51:29;95724.06;;;4.56;51.95
60228;BME280;46091;46.512;6.626;2022-12-13T08:53:36;95721.47;;;4.56;52.02
60228;BME280;46091;46.512;6.626;2022-12-13T08:55:41;95723.09;;;4.57;51.98
60228;BME280;46091;46.512;6.626;2022-12-13T08:57:46;95735.97;;;4.58;51.84
60228;BME280;46091;46.512;6.626;2022-12-13T08:59:48;95735.19;;;4.58;52.05
60228;BME280;46091;46.512;6.626;2022-12-13T09:01:51;95736.16;;;4.57;51.98
60228;BME280;46091;46.512;6.626;2022-12-13T09:03:59;95742.41;;;4.56;52.01
60228;BME280;46091;46.512;6.626;2022-12-13T09:06:06;95747.44;;;4.57;52.09
60228;BME280;46091;46.512;6.626;2022-12-13T09:08:09;95746.47;;;4.58;51.97
60228;BME280;46091;46.512;6.626;2022-12-13T09:10:25;95753.31;;;4.59;51.98
60228;BME280;46091;46.512;6.626;2022-12-13T09:12:40;95766.22;;;4.61;52.02
60228;BME280;46091;46.512;6.626;2022-12-13T09:14:45;95760.78;;;4.62;51.97
60228;BME280;46091;46.512;6.626;2022-12-13T09:16:50;95764.41;;;4.61;51.99
60228;BME280;46091;46.512;6.626;2022-12-13T09:18:53;95759.97;;;4.62;52.06
60228;BME280;46091;46.512;6.626;2022-12-13T09:20:56;95758.00;;;4.64;51.99
60228;BME280;46091;46.512;6.626;2022-12-13T09:23:11;95762.41;;;4.63;51.92
60228;BME280;46091;46.512;6.626;2022-12-13T09:25:24;95768.13;;;4.67;52.09
60228;BME280;46091;46.512;6.626;2022-12-13T09:27:27;95772.38;;;4.68;52.05
60228;BME280;46091;46.512;6.626;2022-12-13T09:29:31;95771.19;;;4.71;52.05
60228;BME280;46091;46.512;6.626;2022-12-13T09:31:35;95767.56;;;4.72;52.11
60228;BME280;46091;46.512;6.626;2022-12-13T09:33:38;95768.56;;;4.71;52.22
60228;BME280;46091;46.512;6.626;2022-12-13T09:35:42;95762.69;;;4.68;52.36
60228;BME280;46091;46.512;6.626;2022-12-13T09:37:45;95762.69;;;4.68;52.29
60228;BME280;46091;46.512;6.626;2022-12-13T09:39:48;95768.75;;;4.69;52.46
60228;BME280;46091;46.512;6.626;2022-12-13T09:41:57;95773.00;;;4.70;52.53
60228;BME280;46091;46.512;6.626;2022-12-13T09:44:03;95766.94;;;4.70;52.42
60228;BME280;46091;46.512;6.626;2022-12-13T09:46:30;95764.31;;;4.70;52.48
60228;BME280;46091;46.512;6.626;2022-12-13T09:48:46;95769.19;;;4.73;52.55
60228;BME280;46091;46.512;6.626;2022-12-13T09:50:50;95768.00;;;4.75;52.58
60228;BME280;46091;46.512;6.626;2022-12-13T09:53:15;95767.84;;;4.77;52.62
60228;BME280;46091;46.512;6.626;2022-12-13T09:55:25;95767.19;;;4.75;52.71
60228;BME280;46091;46.512;6.626;2022-12-13T09:57:31;95767.84;;;4.77;52.74
60228;BME280;46091;46.512;6.626;2022-12-13T09:59:35;95761.97;;;4.75;52.79
60228;BME280;46091;46.512;6.626;2022-12-13T10:01:37;95762.97;;;4.74;52.95
60228;BME280;46091;46.512;6.626;2022-12-13T10:03:45;95760.34;;;4.74;53.08
60228;BME280;46091;46.512;6.626;2022-12-13T10:05:56;95756.38;;;4.78;53.00
60228;BME280;46091;46.512;6.626;2022-12-13T10:08:05;95753.56;;;4.79;53.11
60228;BME280;46091;46.512;6.626;2022-12-13T10:10:10;95754.38;;;4.80;53.06
60228;BME280;46091;46.512;6.626;2022-12-13T10:12:15;95749.97;;;4.80;53.18
60228;BME280;46091;46.512;6.626;2022-12-13T10:14:22;95761.63;;;4.78;53.27
60228;BME280;46091;46.512;6.626;2022-12-13T10:16:33;95760.81;;;4.77;53.24
60228;BME280;46091;46.512;6.626;2022-12-13T10:18:40;95758.19;;;4.77;53.36
60228;BME280;46091;46.512;6.626;2022-12-13T10:20:43;95753.13;;;4.76;53.38
60228;BME280;46091;46.512;6.626;2022-12-13T10:22:50;95754.75;;;4.77;53.46
60228;BME280;46091;46.512;6.626;2022-12-13T10:25:15;95760.34;;;4.74;53.58
60228;BME280;46091;46.512;6.626;2022-12-13T10:27:23;95752.16;;;4.77;53.62
60228;BME280;46091;46.512;6.626;2022-12-13T10:29:28;95760.00;;;4.77;53.60
60228;BME280;46091;46.512;6.626;2022-12-13T10:31:38;95740.47;;;4.79;53.67
60228;BME280;46091;46.512;6.626;2022-12-13T10:33:51;95741.28;;;4.80;53.66
60228;BME280;46091;46.512;6.626;2022-12-13T10:36:08;95736.78;;;4.74;53.81
60228;BME280;46091;46.512;6.626;2022-12-13T10:38:28;95740.19;;;4.74;53.83
60228;BME280;46091;46.512;6.626;2022-12-13T10:40:34;95746.72;;;4.78;53.78
60228;BME280;46091;46.512;6.626;2022-12-13T10:42:37;95749.16;;;4.80;53.85
60228;BME280;46091;46.512;6.626;2022-12-13T10:44:39;95739.69;;;4.79;53.86
60228;BME280;46091;46.512;6.626;2022-12-13T10:46:48;95739.06;;;4.77;54.02
60228;BME280;46091;46.512;6.626;2022-12-13T10:48:52;95736.44;;;4.77;54.07
60228;BME280;46091;46.512;6.626;2022-12-13T10:50:57;95744.28;;;4.77;54.06
60228;BME280;46091;46.512;6.626;2022-12-13T10:53:01;95736.25;;;4.78;54.17
60228;BME280;46091;46.512;6.626;2022-12-13T10:55:23;95732.00;;;4.77;54.16
60228;BME280;46091;46.512;6.626;2022-12-13T10:57:28;95735.25;;;4.79;54.18
60228;BME280;46091;46.512;6.626;2022-12-13T10:59:32;95728.19;;;4.80;54.29
60228;BME280;46091;46.512;6.626;2022-12-13T11:01:36;95720.53;;;4.78;54.36
60228;BME280;46091;46.512;6.626;2022-12-13T11:03:40;95718.44;;;4.74;54.26
60228;BME280;46091;46.512;6.626;2022-12-13T11:05:43;95720.72;;;4.77;54.31
60228;BME280;46091;46.512;6.626;2022-12-13T11:07:51;95720.06;;;4.75;54.29
60228;BME280;46091;46.512;6.626;2022-12-13T11:10:19;95718.91;;;4.77;54.54
60228;BME280;46091;46.512;6.626;2022-12-13T11:12:28;95725.78;;;4.78;54.47
60228;BME280;46091;46.512;6.626;2022-12-13T11:14:33;95722.16;;;4.79;54.47
60228;BME280;46091;46.512;6.626;2022-12-13T11:16:48;95721.34;;;4.79;54.62
60228;BME280;46091;46.512;6.626;2022-12-13T11:18:54;95726.41;;;4.80;54.48
60228;BME280;46091;46.512;6.626;2022-12-13T11:20:59;95724.59;;;4.81;54.80
60228;BME280;46091;46.512;6.626;2022-12-13T11:23:05;95726.22;;;4.82;54.83
60228;BME280;46091;46.512;6.626;2022-12-13T11:25:20;95718.16;;;4.83;54.59
60228;BME280;46091;46.512;6.626;2022-12-13T11:27:44;95721.41;;;4.85;54.74
60228;BME280;46091;46.512;6.626;2022-12-13T11:30:02;95724.84;;;4.86;54.81
60228;BME280;46091;46.512;6.626;2022-12-13T11:32:17;95721.22;;;4.87;54.84
60228;BME280;46091;46.512;6.626;2022-12-13T11:34:31;95718.97;;;4.84;54.85
60228;BME280;46091;46.512;6.626;2022-12-13T11:36:44;95723.41;;;4.83;54.85
60228;BME280;46091;46.512;6.626;2022-12-13T11:39:02;95719.97;;;4.83;55.02
60228;BME280;46091;46.512;6.626;2022-12-13T11:41:16;95718.97;;;4.84;54.92
60228;BME280;46091;46.512;6.626;2022-12-13T11:43:36;95726.63;;;4.85;54.79
60228;BME280;46091;46.512;6.626;2022-12-13T11:45:44;95727.44;;;4.86;54.98
60228;BME280;46091;46.512;6.626;2022-12-13T11:47:53;95721.41;;;4.85;55.00
60228;BME280;46091;46.512;6.626;2022-12-13T11:50:00;95725.84;;;4.85;55.07
60228;BME280;46091;46.512;6.626;2022-12-13T11:52:12;95726.31;;;4.88;55.12
60228;BME280;46091;46.512;6.626;2022-12-13T11:54:22;95726.31;;;4.88;55.10
60228;BME280;46091;46.512;6.626;2022-12-13T11:56:33;95732.78;;;4.92;55.02
60228;BME280;46091;46.512;6.626;2022-12-13T11:58:44;95734.41;;;4.93;55.07
60228;BME280;46091;46.512;6.626;2022-12-13T12:01:11;95737.22;;;4.92;55.25
60228;BME280;46091;46.512;6.626;2022-12-13T12:03:18;95741.63;;;4.91;55.28
60228;BME280;46091;46.512;6.626;2022-12-13T12:05:29;95735.41;;;4.92;55.32
60228;BME280;46091;46.512;6.626;2022-12-13T12:07:38;95726.72;;;4.92;55.34
60228;BME280;46091;46.512;6.626;2022-12-13T12:10:08;95725.72;;;4.93;55.24
60228;BME280;46091;46.512;6.626;2022-12-13T12:12:23;95716.25;;;4.92;55.27
60228;BME280;46091;46.512;6.626;2022-12-13T12:14:35;95716.44;;;4.90;55.38
60228;BME280;46091;46.512;6.626;2022-12-13T12:16:42;95714.63;;;4.91;55.32
60228;BME280;46091;46.512;6.626;2022-12-13T12:18:49;95698.72;;;4.92;55.46
60228;BME280;46091;46.512;6.626;2022-12-13T12:21:02;95698.72;;;4.92;55.54
60228;BME280;46091;46.512;6.626;2022-12-13T12:23:15;95702.78;;;4.95;55.36
60228;BME280;46091;46.512;6.626;2022-12-13T12:25:28;95698.97;;;4.97;55.54
60228;BME280;46091;46.512;6.626;2022-12-13T12:27:39;95695.41;;;4.99;55.52
60228;BME280;46091;46.512;6.626;2022-12-13T12:30:00;95699.44;;;5.01;55.46
60228;BME280;46091;46.512;6.626;2022-12-13T12:32:11;95697.63;;;5.02;55.46
60228;BME280;46091;46.512;6.626;2022-12-13T12:34:23;95700.06;;;5.03;55.54
60228;BME280;46091;46.512;6.626;2022-12-13T12:36:43;95693.00;;;5.04;55.68
60228;BME280;46091;46.512;6.626;2022-12-13T12:39:12;95699.44;;;5.01;55.69
60228;BME280;46091;46.512;6.626;2022-12-13T12:41:31;95691.78;;;5.00;55.77
60228;BME280;46091;46.512;6.626;2022-12-13T12:43:53;95692.41;;;5.02;55.69
60228;BME280;46091;46.512;6.626;2022-12-13T12:46:14;95681.72;;;5.03;55.87
60228;BME280;46091;46.512;6.626;2022-12-13T12:48:34;95681.72;;;5.03;55.75
60228;BME280;46091;46.512;6.626;2022-12-13T12:51:05;95680.91;;;5.03;55.70
60228;BME280;46091;46.512;6.626;2022-12-13T12:53:22;95691.22;;;5.04;55.90
60228;BME280;46091;46.512;6.626;2022-12-13T12:55:43;95682.53;;;5.04;55.92
60228;BME280;46091;46.512;6.626;2022-12-13T12:57:56;95674.50;;;5.05;55.90
60228;BME280;46091;46.512;6.626;2022-12-13T13:00:08;95672.88;;;5.04;56.19
60228;BME280;46091;46.512;6.626;2022-12-13T13:02:18;95670.88;;;5.06;56.24
60228;BME280;46091;46.512;6.626;2022-12-13T13:04:27;95678.09;;;5.04;56.32
60228;BME280;46091;46.512;6.626;2022-12-13T13:06:33;95686.16;;;5.03;56.19
60228;BME280;46091;46.512;6.626;2022-12-13T13:08:44;95682.09;;;5.00;56.43
60228;BME280;46091;46.512;6.626;2022-12-13T13:10:56;95674.25;;;5.00;56.32
60228;BME280;46091;46.512;6.626;2022-12-13T13:13:02;95669.81;;;5.01;56.55
60228;BME280;46091;46.512;6.626;2022-12-13T13:17:51;95674.25;;;5.00;56.56
60228;BME280;46091;46.512;6.626;2022-12-13T13:20:10;95679.69;;;4.99;56.48
60228;BME280;46091;46.512;6.626;2022-12-13T13:22:31;95675.88;;;5.01;56.61
60228;BME280;46091;46.512;6.626;2022-12-13T13:24:58;95676.88;;;5.00;56.63
60228;BME280;46091;46.512;6.626;2022-12-13T13:27:24;95681.91;;;5.02;56.48
60228;BME280;46091;46.512;6.626;2022-12-13T13:29:34;95679.28;;;5.02;56.38
60228;BME280;46091;46.512;6.626;2022-12-13T13:31:55;95676.06;;;5.00;56.76
60228;BME280;46091;46.512;6.626;2022-12-13T13:34:20;95676.88;;;5.00;56.65
60228;BME280;46091;46.512;6.626;2022-12-13T13:36:44;95682.91;;;5.01;56.78
60228;BME280;46091;46.512;6.626;2022-12-13T13:38:50;95688.34;;;4.99;56.78
60228;BME280;46091;46.512;6.626;2022-12-13T13:40:53;95681.28;;;5.00;56.78
60228;BME280;46091;46.512;6.626;2022-12-13T13:43:12;95676.06;;;5.00;56.83
60228;BME280;46091;46.512;6.626;2022-12-13T13:45:21;95686.34;;;5.01;56.69
60228;BME280;46091;46.512;6.626;2022-12-13T13:50:55;95703.06;;;5.00;56.77
60228;BME280;46091;46.512;6.626;2022-12-13T13:55:43;95690.16;;;4.99;56.82
60228;BME280;46091;46.512;6.626;2022-12-13T13:58:21;95692.78;;;4.99;56.82
60228;BME280;46091;46.512;6.626;2022-12-13T14:00:42;95684.91;;;4.99;57.02
60228;BME280;46091;46.512;6.626;2022-12-13T14:03:30;95682.09;;;5.00;57.07
60228;BME280;46091;46.512;6.626;2022-12-13T14:08:40;95694.00;;;5.03;56.78
60228;BME280;46091;46.512;6.626;2022-12-13T14:11:05;95697.81;;;5.00;56.82
60228;BME280;46091;46.512;6.626;2022-12-13T14:13:40;95691.50;;;4.94;57.09
60228;BME280;46091;46.512;6.626;2022-12-13T14:21:23;95695.31;;;4.92;57.38
60228;BME280;46091;46.512;6.626;2022-12-13T14:23:39;95691.69;;;4.93;57.39
60228;BME280;46091;46.512;6.626;2022-12-13T14:25:57;95696.56;;;4.96;57.31
60228;BME280;46091;46.512;6.626;2022-12-13T14:28:12;95706.69;;;4.99;57.23
60228;BME280;46091;46.512;6.626;2022-12-13T14:30:20;95698.81;;;4.99;57.42
60228;BME280;46091;46.512;6.626;2022-12-13T14:32:30;95695.81;;;5.02;57.40
60228;BME280;46091;46.512;6.626;2022-12-13T14:34:36;95699.06;;;5.04;57.37
60228;BME280;46091;46.512;6.626;2022-12-13T14:36:40;95699.06;;;5.04;57.42
60228;BME280;46091;46.512;6.626;2022-12-13T14:38:58;95700.06;;;5.03;57.34
60228;BME280;46091;46.512;6.626;2022-12-13T14:41:01;95705.31;;;5.03;57.42
60228;BME280;46091;46.512;6.626;2022-12-13T14:43:21;95698.44;;;5.02;57.32
60228;BME280;46091;46.512;6.626;2022-12-13T14:45:27;95697.44;;;5.03;57.55
60228;BME280;46091;46.512;6.626;2022-12-13T14:47:32;95700.25;;;5.02;57.51
60228;BME280;46091;46.512;6.626;2022-12-13T14:49:38;95702.06;;;5.01;57.60
60228;BME280;46091;46.512;6.626;2022-12-13T14:51:53;95698.44;;;5.02;57.60
60228;BME280;46091;46.512;6.626;2022-12-13T14:54:04;95696.63;;;5.03;57.51
60228;BME280;46091;46.512;6.626;2022-12-13T14:56:10;95691.22;;;5.04;57.56
60228;BME280;46091;46.512;6.626;2022-12-13T14:58:29;95693.00;;;5.04;57.61
60228;BME280;46091;46.512;6.626;2022-12-13T15:00:37;95691.41;;;5.03;57.68
60228;BME280;46091;46.512;6.626;2022-12-13T15:02:49;95691.22;;;5.04;57.73
60228;BME280;46091;46.512;6.626;2022-12-13T15:04:52;95700.69;;;5.05;57.77
60228;BME280;46091;46.512;6.626;2022-12-13T15:07:03;95692.63;;;5.07;57.79
60228;BME280;46091;46.512;6.626;2022-12-13T15:09:11;95691.44;;;5.09;57.81
60228;BME280;46091;46.512;6.626;2022-12-13T15:11:14;95688.66;;;5.11;57.84
60228;BME280;46091;46.512;6.626;2022-12-13T15:13:24;95681.63;;;5.11;57.70
60228;BME280;46091;46.512;6.626;2022-12-13T15:15:32;95680.97;;;5.09;57.71
60228;BME280;46091;46.512;6.626;2022-12-13T15:17:38;95676.91;;;5.07;57.70
60228;BME280;46091;46.512;6.626;2022-12-13T15:19:42;95684.59;;;5.08;57.73
60228;BME280;46091;46.512;6.626;2022-12-13T15:21:55;95682.78;;;5.09;57.81
60228;BME280;46091;46.512;6.626;2022-12-13T15:24:03;95681.81;;;5.10;57.96
60228;BME280;46091;46.512;6.626;2022-12-13T15:26:11;95687.22;;;5.08;57.98
60228;BME280;46091;46.512;6.626;2022-12-13T15:28:32;95689.66;;;5.10;58.06
60228;BME280;46091;46.512;6.626;2022-12-13T15:30:35;95686.41;;;5.08;58.02
60228;BME280;46091;46.512;6.626;2022-12-13T15:33:01;95688.81;;;5.09;57.89
60228;BME280;46091;46.512;6.626;2022-12-13T15:35:14;95696.69;;;5.09;57.90
60228;BME280;46091;46.512;6.626;2022-12-13T15:37:23;95689.81;;;5.08;58.13
60228;BME280;46091;46.512;6.626;2022-12-13T15:39:35;95685.59;;;5.07;57.98
60228;BME280;46091;46.512;6.626;2022-12-13T15:41:44;95681.34;;;5.06;58.24
60228;BME280;46091;46.512;6.626;2022-12-13T15:43:50;95678.09;;;5.04;58.10
60228;BME280;46091;46.512;6.626;2022-12-13T15:45:54;95683.53;;;5.03;58.03
60228;BME280;46091;46.512;6.626;2022-12-13T15:47:57;95686.97;;;5.03;58.16
60228;BME280;46091;46.512;6.626;2022-12-13T15:50:02;95685.97;;;5.04;58.17
60228;BME280;46091;46.512;6.626;2022-12-13T15:52:23;95684.91;;;4.99;58.40
60228;BME280;46091;46.512;6.626;2022-12-13T15:54:27;95684.97;;;5.05;58.16
60228;BME280;46091;46.512;6.626;2022-12-13T15:56:31;95686.16;;;5.03;58.20
60228;BME280;46091;46.512;6.626;2022-12-13T15:58:36;95690.81;;;5.07;58.34
60228;BME280;46091;46.512;6.626;2022-12-13T16:00:47;95696.06;;;5.07;58.21
60228;BME280;46091;46.512;6.626;2022-12-13T16:02:54;95683.34;;;5.04;58.34
60228;BME280;46091;46.512;6.626;2022-12-13T16:05:05;95688.41;;;5.06;58.32
60228;BME280;46091;46.512;6.626;2022-12-13T16:07:19;95686.16;;;5.03;58.27
60228;BME280;46091;46.512;6.626;2022-12-13T16:09:24;95687.34;;;5.00;58.50
60228;BME280;46091;46.512;6.626;2022-12-13T16:11:30;95683.72;;;5.01;58.46
60228;BME280;46091;46.512;6.626;2022-12-13T16:13:36;95680.91;;;5.03;58.38
60228;BME280;46091;46.512;6.626;2022-12-13T16:15:49;95683.72;;;5.01;58.43
60228;BME280;46091;46.512;6.626;2022-12-13T16:18:04;95680.28;;;5.01;58.12
60228;BME280;46091;46.512;6.626;2022-12-13T16:20:11;95671.63;;;5.00;58.31
60228;BME280;46091;46.512;6.626;2022-12-13T16:22:15;95670.00;;;4.99;58.43
60228;BME280;46091;46.512;6.626;2022-12-13T16:24:22;95674.25;;;5.00;58.63
60228;BME280;46091;46.512;6.626;2022-12-13T16:26:27;95672.44;;;5.01;58.36
60228;BME280;46091;46.512;6.626;2022-12-13T16:28:30;95671.63;;;5.00;58.56
60228;BME280;46091;46.512;6.626;2022-12-13T16:30:59;95661.50;;;4.97;58.38
60228;BME280;46091;46.512;6.626;2022-12-13T16:33:03;95658.25;;;4.95;58.47
60228;BME280;46091;46.512;6.626;2022-12-13T16:35:26;95664.13;;;4.97;58.42
60228;BME280;46091;46.512;6.626;2022-12-13T16:37:29;95662.31;;;4.97;58.52
60228;BME280;46091;46.512;6.626;2022-12-13T16:39:32;95664.31;;;4.95;58.55
60228;BME280;46091;46.512;6.626;2022-12-13T16:41:35;95671.53;;;4.93;58.53
60228;BME280;46091;46.512;6.626;2022-12-13T16:43:46;95669.75;;;4.94;58.54
60228;BME280;46091;46.512;6.626;2022-12-13T16:45:54;95671.97;;;4.97;58.55
60228;BME280;46091;46.512;6.626;2022-12-13T16:47:57;95675.59;;;4.96;58.56
60228;BME280;46091;46.512;6.626;2022-12-13T16:50:01;95661.50;;;4.97;58.73
60228;BME280;46091;46.512;6.626;2022-12-13T16:52:04;95667.38;;;4.99;58.78
60228;BME280;46091;46.512;6.626;2022-12-13T16:54:08;95666.00;;;5.03;58.62
60228;BME280;46091;46.512;6.626;2022-12-13T16:56:10;95668.81;;;5.02;58.78
60228;BME280;46091;46.512;6.626;2022-12-13T16:58:17;95672.25;;;5.02;58.60
60228;BME280;46091;46.512;6.626;2022-12-13T17:00:21;95662.78;;;5.01;58.73
60228;BME280;46091;46.512;6.626;2022-12-13T17:02:25;95663.78;;;5.00;58.93
60228;BME280;46091;46.512;6.626;2022-12-13T17:04:28;95666.19;;;5.02;58.94
60228;BME280;46091;46.512;6.626;2022-12-13T17:06:31;95656.53;;;5.02;58.84
60228;BME280;46091;46.512;6.626;2022-12-13T17:08:34;95660.78;;;5.03;58.78
60228;BME280;46091;46.512;6.626;2022-12-13T17:10:36;95671.88;;;5.05;58.76
60228;BME280;46091;46.512;6.626;2022-12-13T17:12:39;95667.00;;;5.02;58.85
60228;BME280;46091;46.512;6.626;2022-12-13T17:14:46;95663.41;;;5.03;58.93
60228;BME280;46091;46.512;6.626;2022-12-13T17:16:48;95655.53;;;5.03;58.82
60228;BME280;46091;46.512;6.626;2022-12-13T17:18:53;95653.53;;;5.05;58.92
60228;BME280;46091;46.512;6.626;2022-12-13T17:20:57;95648.09;;;5.07;58.88
60228;BME280;46091;46.512;6.626;2022-12-13T17:23:00;95657.38;;;5.09;58.95
60228;BME280;46091;46.512;6.626;2022-12-13T17:25:06;95648.91;;;5.07;59.05
60228;BME280;46091;46.512;6.626;2022-12-13T17:27:09;95656.41;;;5.10;58.93
60228;BME280;46091;46.512;6.626;2022-12-13T17:29:12;95658.47;;;5.15;58.93
60228;BME280;46091;46.512;6.626;2022-12-13T17:31:19;95645.78;;;5.18;58.92
60228;BME280;46091;46.512;6.626;2022-12-13T17:33:23;95638.75;;;5.19;58.67
60228;BME280;46091;46.512;6.626;2022-12-13T17:35:27;95636.78;;;5.21;58.77
60228;BME280;46091;46.512;6.626;2022-12-13T17:37:30;95633.16;;;5.22;58.78
60228;BME280;46091;46.512;6.626;2022-12-13T17:39:33;95630.69;;;5.20;58.97
60228;BME280;46091;46.512;6.626;2022-12-13T17:41:36;95631.97;;;5.24;58.85
60228;BME280;46091;46.512;6.626;2022-12-13T17:43:39;95639.63;;;5.26;58.69
60228;BME280;46091;46.512;6.626;2022-12-13T17:45:43;95636.81;;;5.28;58.75
60228;BME280;46091;46.512;6.626;2022-12-13T17:47:46;95637.44;;;5.30;58.82
60228;BME280;46091;46.512;6.626;2022-12-13T17:49:50;95635.63;;;5.30;58.79
60228;BME280;46091;46.512;6.626;2022-12-13T17:51:54;95631.19;;;5.31;58.51
60228;BME280;46091;46.512;6.626;2022-12-13T17:53:57;95630.19;;;5.32;58.84
60228;BME280;46091;46.512;6.626;2022-12-13T17:56:02;95636.06;;;5.34;58.67
60228;BME280;46091;46.512;6.626;2022-12-13T17:58:06;95628.22;;;5.34;58.76
60228;BME280;46091;46.512;6.626;2022-12-13T18:00:10;95630.03;;;5.33;58.96
60228;BME280;46091;46.512;6.626;2022-12-13T18:02:14;95628.03;;;5.35;58.77
60228;BME280;46091;46.512;6.626;2022-12-13T18:04:23;95623.59;;;5.36;58.91
60228;BME280;46091;46.512;6.626;2022-12-13T18:06:26;95616.34;;;5.38;58.90
60228;BME280;46091;46.512;6.626;2022-12-13T18:08:32;95612.72;;;5.39;58.96
60228;BME280;46091;46.512;6.626;2022-12-13T18:10:36;95627.44;;;5.40;58.86
60228;BME280;46091;46.512;6.626;2022-12-13T18:12:39;95623.81;;;5.41;58.85
60228;BME280;46091;46.512;6.626;2022-12-13T18:14:42;95627.88;;;5.43;58.82
60228;BME280;46091;46.512;6.626;2022-12-13T18:16:45;95625.25;;;5.43;58.81
60228;BME280;46091;46.512;6.626;2022-12-13T18:18:48;95620.84;;;5.44;58.88
60228;BME280;46091;46.512;6.626;2022-12-13T18:21:01;95625.69;;;5.47;58.90
60228;BME280;46091;46.512;6.626;2022-12-13T18:23:04;95624.69;;;5.48;58.87
60228;BME280;46091;46.512;6.626;2022-12-13T18:25:08;95627.31;;;5.48;58.94
60228;BME280;46091;46.512;6.626;2022-12-13T18:27:13;95630.94;;;5.47;58.85
60228;BME280;46091;46.512;6.626;2022-12-13T18:29:15;95624.69;;;5.48;58.91
60228;BME280;46091;46.512;6.626;2022-12-13T18:31:20;95626.13;;;5.50;58.85
60228;BME280;46091;46.512;6.626;2022-12-13T18:33:24;95626.13;;;5.50;58.67
60228;BME280;46091;46.512;6.626;2022-12-13T18:35:27;95626.13;;;5.50;58.93
60228;BME280;46091;46.512;6.626;2022-12-13T18:37:30;95633.19;;;5.50;58.85
60228;BME280;46091;46.512;6.626;2022-12-13T18:39:33;95628.94;;;5.49;58.86
60228;BME280;46091;46.512;6.626;2022-12-13T18:41:37;95627.31;;;5.48;59.10
60228;BME280;46091;46.512;6.626;2022-12-13T18:43:41;95626.31;;;5.49;58.93
60228;BME280;46091;46.512;6.626;2022-12-13T18:45:44;95620.25;;;5.48;59.02
60228;BME280;46091;46.512;6.626;2022-12-13T18:47:46;95625.50;;;5.48;59.02